Time;durP1;ratioP1;P1;durP2;ratioP2;P2;SDS_P1;SDS_P2;PMS_P1;PMS_P2;Temp;Humidity;BMP_temperature;BMP_pressure;BME280_temperature;BME280_humidity;BME280_pressure;Samples;Min_cycle;Max_cycle;Signal;HPM_P1;HPM_P2
2021/01/12 00:01:40;;;;;;;24.23;5.22;;;7.90;99.90;;;;;;4973836;28;20226;-71
2021/01/12 00:04:07;;;;;;;23.60;4.68;;;7.90;99.90;;;;;;4972502;28;20213;-71
2021/01/12 00:06:33;;;;;;;26.45;5.18;;;7.90;99.90;;;;;;4971905;28;20194;-71
2021/01/12 00:09:00;;;;;;;20.05;4.57;;;7.90;99.90;;;;;;4973870;28;20198;-71
2021/01/12 00:11:26;;;;;;;28.38;5.00;;;7.90;99.90;;;;;;4973500;28;20645;-71
2021/01/12 00:13:53;;;;;;;24.70;4.93;;;7.90;99.90;;;;;;4972294;28;20216;-71
2021/01/12 00:16:20;;;;;;;30.63;5.30;;;7.90;99.90;;;;;;4973690;28;20209;-71
2021/01/12 00:18:47;;;;;;;32.38;5.28;;;7.90;99.90;;;;;;4961493;28;20284;-70
2021/01/12 00:21:14;;;;;;;28.15;5.22;;;7.90;99.90;;;;;;4973656;28;20579;-71
2021/01/12 00:23:40;;;;;;;29.00;4.93;;;7.90;99.90;;;;;;4977146;28;20233;-71
2021/01/12 00:26:07;;;;;;;34.90;5.65;;;7.90;99.90;;;;;;4972412;28;20206;-71
2021/01/12 00:28:33;;;;;;;32.35;5.40;;;7.90;99.90;;;;;;4972668;28;20229;-71
2021/01/12 00:31:03;;;;;;;33.13;5.50;;;7.90;99.90;;;;;;4984258;28;20685;-70
2021/01/12 00:33:30;;;;;;;35.28;5.80;;;7.90;99.90;;;;;;4981801;28;20310;-71
2021/01/12 00:35:57;;;;;;;50.92;5.68;;;7.90;99.90;;;;;;4981210;28;20222;-71
2021/01/12 00:38:24;;;;;;;38.17;5.35;;;7.90;99.90;;;;;;4972613;28;20249;-71
2021/01/12 00:40:50;;;;;;;36.67;4.90;;;7.90;99.90;;;;;;4972086;28;20202;-71
2021/01/12 00:43:16;;;;;;;38.95;5.20;;;7.90;99.90;;;;;;4972346;28;20643;-71
2021/01/12 00:45:44;;;;;;;37.80;5.22;;;7.90;99.90;;;;;;4970571;28;20202;-71
2021/01/12 00:48:10;;;;;;;49.45;5.43;;;7.90;99.90;;;;;;4971539;28;20214;-72
2021/01/12 00:50:37;;;;;;;48.30;5.50;;;8.00;99.90;;;;;;4982958;28;20241;-72
2021/01/12 00:53:04;;;;;;;48.05;5.40;;;8.00;99.90;;;;;;4971892;28;20611;-72
2021/01/12 00:55:30;;;;;;;44.17;5.65;;;8.00;99.90;;;;;;4973008;28;20221;-71
2021/01/12 00:57:56;;;;;;;44.85;5.78;;;8.00;99.90;;;;;;4972278;28;20209;-71
2021/01/12 01:00:23;;;;;;;41.95;5.40;;;8.00;99.90;;;;;;4958615;28;20582;-71
2021/01/12 01:02:50;;;;;;;39.70;6.03;;;8.00;99.90;;;;;;4979498;28;20202;-71
2021/01/12 01:05:18;;;;;;;56.92;6.22;;;8.00;99.90;;;;;;4971453;28;20256;-71
2021/01/12 01:07:47;;;;;;;57.53;7.70;;;8.00;99.90;;;;;;4972193;28;20567;-71
2021/01/12 01:10:14;;;;;;;48.50;5.47;;;8.00;99.90;;;;;;4972440;28;20209;-72
2021/01/12 01:12:40;;;;;;;62.60;6.03;;;8.10;99.90;;;;;;4974709;28;20209;-71
2021/01/12 01:15:08;;;;;;;53.53;5.93;;;8.10;99.90;;;;;;4972237;28;20702;-71
2021/01/12 01:17:34;;;;;;;59.50;6.10;;;8.10;99.90;;;;;;4971040;28;20222;-71
2021/01/12 01:20:01;;;;;;;53.00;5.72;;;8.10;99.90;;;;;;4970687;28;20213;-71
2021/01/12 01:22:27;;;;;;;46.17;6.15;;;8.10;99.90;;;;;;4971262;28;20209;-71
2021/01/12 01:24:53;;;;;;;54.63;5.72;;;8.10;99.90;;;;;;4972430;28;20249;-72
2021/01/12 01:27:21;;;;;;;51.35;6.32;;;8.10;99.90;;;;;;4971401;28;20193;-71
2021/01/12 01:29:47;;;;;;;49.58;5.93;;;8.10;99.90;;;;;;4976241;28;20239;-71
2021/01/12 01:32:13;;;;;;;45.33;5.43;;;8.20;99.90;;;;;;4974101;28;20204;-71
2021/01/12 01:34:40;;;;;;;48.10;6.43;;;8.20;99.90;;;;;;4974647;28;20237;-71
2021/01/12 01:37:07;;;;;;;50.75;5.72;;;8.20;99.90;;;;;;4991563;28;20623;-71
2021/01/12 01:39:34;;;;;;;39.63;4.78;;;8.20;99.90;;;;;;4979387;28;20670;-71
2021/01/12 01:42:01;;;;;;;55.17;5.38;;;8.20;99.90;;;;;;4972169;28;20194;-72
2021/01/12 01:44:29;;;;;;;60.97;5.40;;;8.20;99.90;;;;;;4985169;28;20197;-72
2021/01/12 01:46:55;;;;;;;42.10;5.18;;;8.20;99.90;;;;;;4991235;28;20205;-71
2021/01/12 01:49:22;;;;;;;39.42;5.15;;;8.20;99.90;;;;;;4973470;28;20659;-71
2021/01/12 01:51:48;;;;;;;46.95;5.07;;;8.20;99.90;;;;;;4970926;28;20701;-71
2021/01/12 01:54:15;;;;;;;41.05;5.05;;;8.20;99.90;;;;;;4969631;28;20229;-70
2021/01/12 01:56:41;;;;;;;49.75;5.65;;;8.30;99.90;;;;;;4971175;28;20198;-71
2021/01/12 01:59:08;;;;;;;45.60;4.80;;;8.30;99.90;;;;;;4970885;28;20209;-71
2021/01/12 02:01:36;;;;;;;45.72;5.68;;;8.30;99.90;;;;;;4971449;28;20268;-70
2021/01/12 02:04:11;;;;;;;44.97;5.13;;;8.30;99.90;;;;;;4972213;28;20276;-71
2021/01/12 02:06:38;;;;;;;40.80;4.90;;;8.30;99.90;;;;;;4985716;28;20210;-70
2021/01/12 02:09:11;;;;;;;40.08;5.28;;;8.30;99.90;;;;;;4978950;28;20202;-70
2021/01/12 02:11:41;;;;;;;36.35;5.57;;;8.30;99.90;;;;;;4954280;28;20220;-71
2021/01/12 02:14:14;;;;;;;41.42;4.85;;;8.30;99.90;;;;;;4970731;28;20210;-71
2021/01/12 02:16:43;;;;;;;45.35;6.18;;;8.30;99.90;;;;;;4970772;28;20289;-72
2021/01/12 02:19:11;;;;;;;43.25;4.60;;;8.30;99.90;;;;;;4970025;28;20657;-71
2021/01/12 02:21:45;;;;;;;50.40;5.68;;;8.30;99.90;;;;;;4969739;28;20268;-71
2021/01/12 02:24:13;;;;;;;41.80;5.47;;;8.30;99.90;;;;;;4969353;28;20292;-71
2021/01/12 02:26:40;;;;;;;46.15;5.40;;;8.30;99.90;;;;;;4977869;28;20212;-71
2021/01/12 02:29:06;;;;;;;45.05;4.78;;;8.30;99.90;;;;;;4980630;28;20580;-71
2021/01/12 02:31:33;;;;;;;51.55;5.97;;;8.30;99.90;;;;;;4971254;28;20202;-71
2021/01/12 02:34:02;;;;;;;41.92;5.03;;;8.30;99.90;;;;;;4975476;28;20197;-71
2021/01/12 02:36:30;;;;;;;35.83;5.60;;;8.30;99.90;;;;;;4983298;28;20193;-71
2021/01/12 02:38:57;;;;;;;44.47;4.72;;;8.30;99.90;;;;;;4970527;28;20261;-70
2021/01/12 02:41:29;;;;;;;38.13;5.53;;;8.30;99.90;;;;;;4953553;28;20531;-71
2021/01/12 02:43:56;;;;;;;56.45;5.57;;;8.30;99.90;;;;;;4969498;28;20209;-72
2021/01/12 02:46:23;;;;;;;50.17;5.78;;;8.30;99.90;;;;;;4989691;28;20595;-72
2021/01/12 02:48:50;;;;;;;48.17;5.63;;;8.40;99.90;;;;;;4980379;28;20204;-71
2021/01/12 02:51:16;;;;;;;47.30;5.75;;;8.30;99.90;;;;;;4980109;28;20682;-70
2021/01/12 02:53:43;;;;;;;49.22;5.32;;;8.30;99.90;;;;;;4954186;28;20587;-71
2021/01/12 02:56:09;;;;;;;48.60;5.25;;;8.40;99.90;;;;;;4968882;28;20226;-71
2021/01/12 02:58:36;;;;;;;27.55;4.65;;;8.40;99.90;;;;;;4970084;28;20217;-71
2021/01/12 03:01:03;;;;;;;43.17;4.97;;;8.40;99.90;;;;;;4971045;28;20201;-71
2021/01/12 03:03:30;;;;;;;35.58;5.22;;;8.40;99.90;;;;;;4971670;28;20206;-71
2021/01/12 03:05:56;;;;;;;35.58;4.82;;;8.40;99.90;;;;;;4971094;28;20194;-71
2021/01/12 03:08:22;;;;;;;42.00;5.63;;;8.40;99.90;;;;;;4952571;28;20206;-71
2021/01/12 03:10:49;;;;;;;34.15;4.60;;;8.40;99.90;;;;;;4971016;28;20194;-71
2021/01/12 03:13:15;;;;;;;42.97;4.93;;;8.40;99.90;;;;;;4969744;28;20577;-71
2021/01/12 03:15:43;;;;;;;42.70;4.38;;;8.40;99.90;;;;;;4970326;28;20562;-71
2021/01/12 03:18:09;;;;;;;37.63;4.88;;;8.40;99.90;;;;;;4970202;28;20208;-71
2021/01/12 03:20:36;;;;;;;28.15;3.83;;;8.40;99.90;;;;;;4970480;28;20205;-71
2021/01/12 03:23:02;;;;;;;31.73;3.33;;;8.40;99.90;;;;;;4983007;28;20201;-71
2021/01/12 03:25:28;;;;;;;32.10;2.70;;;8.40;99.90;;;;;;4970375;28;20202;-70
2021/01/12 03:27:55;;;;;;;20.48;2.38;;;8.40;99.90;;;;;;4969378;28;20221;-71
2021/01/12 03:30:22;;;;;;;21.50;2.00;;;8.40;99.90;;;;;;4969970;28;20281;-71
2021/01/12 03:32:50;;;;;;;15.70;1.85;;;8.40;99.90;;;;;;4975220;28;20288;-72
2021/01/12 03:35:16;;;;;;;21.02;1.85;;;8.40;99.90;;;;;;4974682;28;20218;-72
2021/01/12 03:37:43;;;;;;;17.13;1.50;;;8.40;99.90;;;;;;4974069;28;20281;-72
2021/01/12 03:40:09;;;;;;;12.35;1.40;;;8.30;99.90;;;;;;4973569;28;20205;-71
2021/01/12 03:42:36;;;;;;;15.23;1.67;;;8.30;99.90;;;;;;4956147;28;20300;-71
2021/01/12 03:45:03;;;;;;;19.95;2.80;;;8.40;99.90;;;;;;4955935;28;20269;-72
2021/01/12 03:47:29;;;;;;;39.95;4.32;;;8.40;99.90;;;;;;4974117;28;20662;-71
2021/01/12 03:49:56;;;;;;;37.30;4.18;;;8.40;99.90;;;;;;4973741;28;20217;-71
2021/01/12 03:52:23;;;;;;;45.35;4.75;;;8.40;99.90;;;;;;4974112;28;20600;-71
2021/01/12 03:54:49;;;;;;;51.78;5.50;;;8.40;99.90;;;;;;4965036;28;20678;-71
2021/01/12 03:57:16;;;;;;;39.13;4.53;;;8.40;99.90;;;;;;4974997;28;20269;-72
2021/01/12 03:59:42;;;;;;;37.65;4.70;;;8.40;99.90;;;;;;4971059;28;21666;-71
2021/01/12 04:02:08;;;;;;;42.97;4.82;;;8.40;99.90;;;;;;4980413;28;20201;-71
2021/01/12 04:04:35;;;;;;;39.53;4.85;;;8.40;99.90;;;;;;4979866;28;20210;-71
2021/01/12 04:07:02;;;;;;;44.78;4.47;;;8.40;99.90;;;;;;4972253;28;20190;-72
2021/01/12 04:09:29;;;;;;;36.08;4.65;;;8.40;99.90;;;;;;4972920;28;20202;-72
2021/01/12 04:11:56;;;;;;;68.93;5.43;;;8.40;99.90;;;;;;4986952;28;20209;-71
2021/01/12 04:14:22;;;;;;;48.67;4.90;;;8.40;99.90;;;;;;4981039;28;20210;-71
2021/01/12 04:16:49;;;;;;;35.58;4.35;;;8.40;99.90;;;;;;4973844;28;20206;-72
2021/01/12 04:19:16;;;;;;;40.33;4.30;;;8.40;99.90;;;;;;4972451;28;20317;-71
2021/01/12 04:21:42;;;;;;;40.58;4.60;;;8.50;99.90;;;;;;4972913;28;20217;-71
2021/01/12 04:24:10;;;;;;;34.75;4.05;;;8.50;99.90;;;;;;4971874;28;20542;-71
2021/01/12 04:26:37;;;;;;;32.47;3.38;;;8.40;99.90;;;;;;4969818;28;20213;-71
2021/01/12 04:29:03;;;;;;;31.27;3.55;;;8.40;99.90;;;;;;4971004;28;20202;-70
2021/01/12 04:31:30;;;;;;;36.67;3.72;;;8.40;99.90;;;;;;4975877;28;20205;-71
2021/01/12 04:33:56;;;;;;;31.38;3.53;;;8.50;99.90;;;;;;4984766;28;20202;-72
2021/01/12 04:36:22;;;;;;;43.63;3.80;;;8.50;99.90;;;;;;4955794;28;20674;-71
2021/01/12 04:38:49;;;;;;;26.67;3.00;;;8.50;99.90;;;;;;4972543;28;20214;-72
2021/01/12 04:41:16;;;;;;;24.48;3.00;;;8.50;99.90;;;;;;4989246;28;20578;-71
2021/01/12 04:43:43;;;;;;;25.13;3.30;;;8.50;99.90;;;;;;4985578;28;20733;-72
2021/01/12 04:46:09;;;;;;;38.55;3.33;;;8.50;99.90;;;;;;4972727;28;20265;-71
2021/01/12 04:48:35;;;;;;;22.77;2.75;;;8.40;99.90;;;;;;4972252;28;20257;-71
2021/01/12 04:51:03;;;;;;;33.00;3.08;;;8.50;99.90;;;;;;4970438;28;20205;-71
2021/01/12 04:53:46;;;;;;;21.05;2.60;;;8.40;99.90;;;;;;4971856;28;20561;-71
2021/01/12 04:56:12;;;;;;;23.77;3.20;;;8.50;99.90;;;;;;4977243;28;20220;-72
2021/01/12 04:58:41;;;;;;;26.45;2.50;;;8.50;99.90;;;;;;4971810;28;20257;-71
2021/01/12 05:01:12;;;;;;;23.58;3.22;;;8.40;99.90;;;;;;4971423;28;20280;-71
2021/01/12 05:03:44;;;;;;;18.40;2.33;;;8.40;99.90;;;;;;4970987;28;20264;-71
2021/01/12 05:06:12;;;;;;;24.70;2.95;;;8.40;99.90;;;;;;4972305;28;20569;-72
2021/01/12 05:08:42;;;;;;;24.50;2.50;;;8.40;99.90;;;;;;4970661;28;20213;-71
2021/01/12 05:11:09;;;;;;;30.67;2.80;;;8.40;99.90;;;;;;4972043;28;20202;-72
2021/01/12 05:13:38;;;;;;;24.75;2.50;;;8.40;99.90;;;;;;4970980;28;20245;-71
2021/01/12 05:16:08;;;;;;;23.60;3.10;;;8.30;99.90;;;;;;4971762;28;20284;-71
2021/01/12 05:18:38;;;;;;;21.55;2.85;;;8.30;99.90;;;;;;4972313;28;20213;-71
2021/01/12 05:21:06;;;;;;;28.05;2.97;;;8.30;99.90;;;;;;4971444;28;20193;-71
2021/01/12 05:23:49;;;;;;;30.35;3.28;;;8.30;99.90;;;;;;4970695;28;20281;-71
2021/01/12 05:26:17;;;;;;;26.05;2.95;;;8.30;99.90;;;;;;4981015;28;20567;-71
2021/01/12 05:28:44;;;;;;;28.25;3.05;;;8.30;99.90;;;;;;4984027;28;20306;-71
2021/01/12 05:31:14;;;;;;;36.28;3.40;;;8.30;99.90;;;;;;4971457;28;20201;-71
2021/01/12 05:33:41;;;;;;;36.40;3.38;;;8.30;99.90;;;;;;4972531;28;20273;-71
2021/01/12 05:36:09;;;;;;;20.70;2.95;;;8.30;99.90;;;;;;4971800;28;20225;-70
2021/01/12 05:38:36;;;;;;;34.65;3.30;;;8.30;99.90;;;;;;4982411;28;21821;-71
2021/01/12 05:41:04;;;;;;;27.90;2.90;;;8.30;99.90;;;;;;4970630;28;20680;-71
2021/01/12 05:43:43;;;;;;;45.22;4.35;;;8.30;99.90;;;;;;4967114;28;20198;-71
2021/01/12 05:46:13;;;;;;;31.48;3.20;;;8.30;99.90;;;;;;4968790;28;20213;-71
2021/01/12 05:48:41;;;;;;;28.80;3.15;;;8.30;99.90;;;;;;4954576;28;20221;-71
2021/01/12 05:51:08;;;;;;;39.33;2.90;;;8.30;99.90;;;;;;4974386;28;20288;-72
2021/01/12 05:54:03;;;;;;;24.70;2.90;;;8.30;99.90;;;;;;4969166;28;20233;-72
2021/01/12 05:56:31;;;;;;;27.95;3.45;;;8.30;99.90;;;;;;4952630;28;20253;-72
2021/01/12 05:58:59;;;;;;;38.60;2.80;;;8.20;99.90;;;;;;4968730;28;20210;-72
2021/01/12 06:01:39;;;;;;;21.48;2.90;;;8.20;99.90;;;;;;4966983;28;20221;-72
2021/01/12 06:04:09;;;;;;;25.88;2.70;;;8.20;99.90;;;;;;4969087;28;20688;-72
2021/01/12 06:06:38;;;;;;;35.72;2.70;;;8.20;99.90;;;;;;4970951;28;20693;-72
2021/01/12 06:09:06;;;;;;;33.28;2.53;;;8.20;99.90;;;;;;4967684;28;20210;-73
2021/01/12 06:11:34;;;;;;;29.05;3.00;;;8.20;99.90;;;;;;4970344;28;20202;-73
2021/01/12 06:14:08;;;;;;;32.00;3.47;;;8.20;99.90;;;;;;4971465;28;20229;-73
2021/01/12 06:16:37;;;;;;;33.33;2.85;;;8.20;99.90;;;;;;4970699;28;20252;-73
2021/01/12 06:19:12;;;;;;;40.85;2.78;;;8.20;99.90;;;;;;4971037;28;20198;-73
2021/01/12 06:22:08;;;;;;;34.45;2.75;;;8.20;99.90;;;;;;4970952;28;20681;-73
2021/01/12 06:24:44;;;;;;;37.72;6.15;;;8.20;99.90;;;;;;4953761;28;20261;-73
2021/01/12 06:27:12;;;;;;;35.80;2.97;;;8.20;99.90;;;;;;4981668;28;20256;-73
2021/01/12 06:29:40;;;;;;;26.83;2.53;;;8.20;99.90;;;;;;4970251;28;20206;-72
2021/01/12 06:32:07;;;;;;;26.23;2.70;;;8.20;99.90;;;;;;4970799;28;20210;-71
2021/01/12 06:34:33;;;;;;;18.33;2.60;;;8.20;99.90;;;;;;4985204;28;20209;-72
2021/01/12 06:37:04;;;;;;;26.80;2.90;;;8.20;99.90;;;;;;4990083;28;20677;-73
2021/01/12 06:39:41;;;;;;;11.10;2.42;;;8.20;99.90;;;;;;4980342;28;20201;-71
2021/01/12 06:42:09;;;;;;;14.80;2.05;;;8.20;99.90;;;;;;4987200;28;20197;-71
2021/01/12 06:44:36;;;;;;;21.48;2.63;;;8.20;99.90;;;;;;4979693;28;20209;-72
2021/01/12 06:47:05;;;;;;;10.93;2.15;;;8.20;99.90;;;;;;4971970;28;20342;-72
2021/01/12 06:49:33;;;;;;;14.63;2.13;;;8.20;99.90;;;;;;4977080;28;20671;-72
2021/01/12 06:52:01;;;;;;;24.08;1.83;;;8.20;99.90;;;;;;4975781;28;20229;-71
2021/01/12 06:54:32;;;;;;;32.35;1.90;;;8.20;99.90;;;;;;4969298;28;20199;-71
2021/01/12 06:57:00;;;;;;;24.27;2.67;;;8.20;99.90;;;;;;4970995;28;20281;-72
2021/01/12 06:59:34;;;;;;;16.88;4.10;;;8.20;99.90;;;;;;4983783;28;20212;-72
2021/01/12 07:02:04;;;;;;;16.85;2.42;;;8.10;99.90;;;;;;4974494;28;20210;-72
2021/01/12 07:04:31;;;;;;;19.83;1.73;;;8.10;99.90;;;;;;4969637;28;20850;-73
2021/01/12 07:06:58;;;;;;;23.40;2.10;;;8.10;99.90;;;;;;4977037;28;20212;-72
2021/01/12 07:09:26;;;;;;;16.98;2.10;;;8.00;99.90;;;;;;4979098;28;20202;-72
2021/01/12 07:12:03;;;;;;;19.30;2.10;;;8.00;99.90;;;;;;4980655;28;20667;-72
2021/01/12 07:14:30;;;;;;;25.13;2.08;;;8.00;99.90;;;;;;4977985;28;20194;-72
2021/01/12 07:17:07;;;;;;;20.27;2.20;;;8.00;99.90;;;;;;4973139;28;20208;-73
2021/01/12 07:19:38;;;;;;;19.55;2.17;;;7.90;99.90;;;;;;4975319;28;20257;-71
2021/01/12 07:22:17;;;;;;;14.10;1.73;;;7.90;99.90;;;;;;4976217;28;20212;-73
2021/01/12 07:24:45;;;;;;;15.40;1.50;;;7.90;99.90;;;;;;4970146;28;20202;-74
2021/01/12 07:27:14;;;;;;;29.25;2.28;;;7.90;99.90;;;;;;4956078;28;20197;-73
2021/01/12 07:29:50;;;;;;;;;;;7.80;99.90;;;;;;4974064;28;20202;-73
2021/01/12 07:32:30;;;;;;;32.15;2.63;;;7.80;99.90;;;;;;4970622;28;20255;-73
2021/01/12 07:35:00;;;;;;;14.30;2.03;;;7.80;99.90;;;;;;4971031;28;20217;-73
2021/01/12 07:37:32;;;;;;;13.90;2.10;;;7.80;99.90;;;;;;4956280;28;20206;-73
2021/01/12 07:39:59;;;;;;;;;;;7.80;99.90;;;;;;4971426;28;20625;-73
2021/01/12 07:42:26;;;;;;;8.82;1.48;;;7.80;99.90;;;;;;4971995;28;20445;-73
2021/01/12 07:44:52;;;;;;;15.35;1.67;;;7.80;99.90;;;;;;4971167;28;20190;-73
2021/01/12 07:47:20;;;;;;;10.27;1.70;;;7.70;99.90;;;;;;4980145;28;20200;-73
2021/01/12 07:49:50;;;;;;;9.00;1.67;;;7.70;99.90;;;;;;4981083;28;20202;-73
2021/01/12 07:52:19;;;;;;;20.50;2.00;;;7.70;99.90;;;;;;4972746;28;20241;-73
2021/01/12 07:54:46;;;;;;;;;;;7.70;99.90;;;;;;4972017;28;20345;-73
2021/01/12 07:57:12;;;;;;;;;;;7.70;99.90;;;;;;4972782;28;19965;-73
2021/01/12 07:59:39;;;;;;;;;;;7.70;99.90;;;;;;4974896;28;19964;-73
2021/01/12 08:02:06;;;;;;;;;;;7.70;99.90;;;;;;4985892;28;19959;-73
2021/01/12 08:04:32;;;;;;;;;;;7.70;99.90;;;;;;4960003;28;19959;-74
2021/01/12 08:06:58;;;;;;;;;;;7.70;99.90;;;;;;4971920;28;20005;-73
2021/01/12 08:09:26;;;;;;;;;;;7.70;99.90;;;;;;4986490;28;19967;-72
2021/01/12 08:11:53;;;;;;;;;;;7.70;99.90;;;;;;4974188;28;19944;-74
2021/01/12 08:14:23;;;;;;;;;;;7.70;99.90;;;;;;4976026;28;19959;-73
2021/01/12 08:16:50;;;;;;;;;;;7.70;99.90;;;;;;4969464;28;20279;-73
2021/01/12 08:19:19;;;;;;;;;;;7.70;99.90;;;;;;4970016;28;19922;-74
2021/01/12 08:21:45;;;;;;;;;;;7.70;99.90;;;;;;4972262;28;20409;-74
2021/01/12 08:24:12;;;;;;;;;;;7.70;99.90;;;;;;4955618;28;20605;-74
2021/01/12 08:26:45;;;;;;;;;;;7.70;99.90;;;;;;4954662;28;19926;-75
2021/01/12 08:29:11;;;;;;;;;;;7.70;99.90;;;;;;4954909;28;19933;-75
2021/01/12 08:31:42;;;;;;;;;;;7.70;99.90;;;;;;4987177;28;19930;-73
2021/01/12 08:34:08;;;;;;;;;;;7.60;99.90;;;;;;4973599;28;19938;-72
2021/01/12 08:36:36;;;;;;;;;;;7.70;99.90;;;;;;4972457;28;19989;-73
2021/01/12 08:39:03;;;;;;;;;;;7.70;99.90;;;;;;4955673;28;20379;-74
2021/01/12 08:41:32;;;;;;;;;;;7.70;99.90;;;;;;4972113;28;19988;-73
2021/01/12 08:43:59;;;;;;;;;;;7.70;99.90;;;;;;4977654;28;20409;-75
2021/01/12 08:46:28;;;;;;;;;;;7.70;99.90;;;;;;4955275;28;20391;-75
2021/01/12 08:48:54;;;;;;;;;;;7.70;99.90;;;;;;4955113;28;19921;-79
2021/01/12 08:51:21;;;;;;;;;;;7.70;99.90;;;;;;4980403;28;19922;-75
2021/01/12 08:53:47;;;;;;;;;;;7.70;99.90;;;;;;4982123;28;19930;-73
2021/01/12 08:56:15;;;;;;;12.20;1.42;;;7.60;99.90;;;;;;4977441;28;20455;-73
2021/01/12 08:58:42;;;;;;;5.60;1.15;;;7.60;99.90;;;;;;4976216;28;20212;-76
2021/01/12 09:01:13;;;;;;;13.73;2.13;;;7.60;99.90;;;;;;4974955;28;20283;-73
2021/01/12 09:03:42;;;;;;;22.17;4.47;;;7.60;99.90;;;;;;4971690;28;20325;-74
2021/01/12 09:06:18;;;;;;;14.65;1.45;;;7.60;99.90;;;;;;4972335;28;20592;-74
2021/01/12 09:08:44;;;;;;;14.85;2.45;;;7.60;99.90;;;;;;4970560;28;20201;-74
2021/01/12 09:11:11;;;;;;;17.70;2.25;;;7.60;99.90;;;;;;4972036;28;20198;-74
2021/01/12 09:13:38;;;;;;;9.25;2.28;;;7.50;99.90;;;;;;4972277;28;20210;-73
2021/01/12 09:16:05;;;;;;;13.85;2.55;;;7.50;99.90;;;;;;4970880;28;20221;-73
2021/01/12 09:18:36;;;;;;;11.40;2.17;;;7.50;99.90;;;;;;4973774;28;20206;-72
2021/01/12 09:21:06;;;;;;;12.88;2.17;;;7.50;99.90;;;;;;4971455;28;20253;-73
2021/01/12 09:23:32;;;;;;;14.40;1.88;;;7.50;99.90;;;;;;4972023;28;20217;-71
2021/01/12 09:26:01;;;;;;;14.32;1.92;;;7.40;99.90;;;;;;4981864;28;20321;-73
2021/01/12 09:28:30;;;;;;;13.82;1.67;;;7.40;99.90;;;;;;4972142;28;20276;-72
2021/01/12 09:31:04;;;;;;;8.30;1.60;;;7.30;99.90;;;;;;4990817;28;20201;-72
2021/01/12 09:33:32;;;;;;;11.93;1.67;;;7.30;99.90;;;;;;4972124;28;20245;-74
2021/01/12 09:36:04;;;;;;;5.75;1.23;;;7.30;99.90;;;;;;4971811;28;20218;-76
2021/01/12 09:38:35;;;;;;;7.93;1.63;;;7.20;99.90;;;;;;4971933;28;20658;-73
2021/01/12 09:41:02;;;;;;;12.70;1.50;;;7.20;99.90;;;;;;4991003;28;22878;-76
2021/01/12 09:43:28;;;;;;;13.27;1.70;;;7.20;99.90;;;;;;4988670;28;20201;-72
2021/01/12 09:45:56;;;;;;;9.60;1.98;;;7.20;99.90;;;;;;4989999;28;20649;-71
2021/01/12 09:48:22;;;;;;;12.55;1.38;;;7.20;99.90;;;;;;4970657;28;20264;-76
2021/01/12 09:50:50;;;;;;;7.82;1.42;;;7.20;99.90;;;;;;4968429;28;20293;-71
2021/01/12 09:53:16;;;;;;;17.30;2.70;;;7.20;99.90;;;;;;4969456;28;20217;-72
2021/01/12 09:55:43;;;;;;;17.67;2.00;;;7.20;99.90;;;;;;4975452;28;20221;-71
2021/01/12 09:58:09;;;;;;;15.65;2.22;;;7.10;99.90;;;;;;4975718;28;20261;-72
2021/01/12 10:00:36;;;;;;;13.10;2.10;;;7.10;99.90;;;;;;4991223;28;20260;-72
2021/01/12 10:03:04;;;;;;;14.80;2.10;;;7.10;99.90;;;;;;4974013;28;20235;-73
2021/01/12 10:05:30;;;;;;;11.68;2.25;;;7.20;99.90;;;;;;4954501;28;20197;-72
2021/01/12 10:07:58;;;;;;;12.25;2.10;;;7.20;99.90;;;;;;4970050;28;20682;-73
2021/01/12 10:10:24;;;;;;;13.43;1.83;;;7.20;99.90;;;;;;4978692;28;20212;-73
2021/01/12 10:12:50;;;;;;;16.63;2.03;;;7.20;99.90;;;;;;4951635;28;20212;-72
2021/01/12 10:15:17;;;;;;;13.30;1.70;;;7.20;99.90;;;;;;4971355;28;20265;-73
2021/01/12 10:17:43;;;;;;;12.70;1.90;;;7.20;99.90;;;;;;4970947;28;20210;-73
2021/01/12 10:20:10;;;;;;;14.55;1.65;;;7.20;99.90;;;;;;4971395;28;20206;-73
2021/01/12 10:22:37;;;;;;;10.05;2.00;;;7.20;99.90;;;;;;4952701;28;20264;-73
2021/01/12 10:25:06;;;;;;;9.00;1.33;;;7.20;99.90;;;;;;4954136;28;20233;-73
2021/01/12 10:27:34;;;;;;;12.77;1.70;;;7.20;99.90;;;;;;4953228;28;20609;-73
2021/01/12 10:30:00;;;;;;;10.80;1.55;;;7.20;99.90;;;;;;4971346;28;20663;-73
2021/01/12 10:32:27;;;;;;;14.45;1.70;;;7.20;99.90;;;;;;4970114;28;20694;-73
2021/01/12 10:34:53;;;;;;;11.77;2.10;;;7.20;99.90;;;;;;4953676;28;20213;-73
2021/01/12 10:37:20;;;;;;;17.95;1.63;;;7.20;99.90;;;;;;4952774;28;20210;-74
2021/01/12 10:39:47;;;;;;;14.07;2.58;;;7.30;99.90;;;;;;4951807;28;20209;-73
2021/01/12 10:42:15;;;;;;;18.13;1.83;;;7.30;99.90;;;;;;4951109;28;20217;-74
2021/01/12 10:44:41;;;;;;;5.72;1.58;;;7.30;99.90;;;;;;4980926;28;20213;-73
2021/01/12 10:47:07;;;;;;;13.10;1.58;;;7.30;99.90;;;;;;4981112;28;20197;-73
2021/01/12 10:49:34;;;;;;;12.35;1.77;;;7.30;99.90;;;;;;4970983;28;20226;-73
2021/01/12 10:52:02;;;;;;;12.35;1.50;;;7.30;99.90;;;;;;4950671;28;20325;-72
2021/01/12 10:54:29;;;;;;;12.93;1.40;;;7.30;99.90;;;;;;4970599;28;20217;-72
2021/01/12 10:56:56;;;;;;;13.75;1.83;;;7.20;99.90;;;;;;4974699;28;20225;-73
2021/01/12 10:59:23;;;;;;;5.43;1.40;;;7.20;99.90;;;;;;4990407;28;20201;-72
2021/01/12 11:01:54;;;;;;;11.48;1.23;;;7.20;99.90;;;;;;4950508;28;20205;-72
2021/01/12 11:04:20;;;;;;;12.40;1.58;;;7.20;99.90;;;;;;4971135;28;20281;-72
2021/01/12 11:06:47;;;;;;;6.32;1.00;;;7.20;99.90;;;;;;4952674;28;20733;-72
2021/01/12 11:09:15;;;;;;;7.45;1.13;;;7.20;99.90;;;;;;4970750;28;20237;-73
2021/01/12 11:11:41;;;;;;;11.57;1.23;;;7.20;99.90;;;;;;4975004;28;20213;-74
2021/01/12 11:14:08;;;;;;;8.90;1.33;;;7.20;99.90;;;;;;4969483;28;20285;-72
2021/01/12 11:16:39;;;;;;;8.82;1.52;;;7.20;99.90;;;;;;4953580;28;20228;-72
2021/01/12 11:19:08;;;;;;;10.68;1.85;;;7.20;99.90;;;;;;4952841;28;20205;-72
2021/01/12 11:21:40;;;;;;;5.68;1.20;;;7.20;99.90;;;;;;4975007;28;20572;-75
2021/01/12 11:24:06;;;;;;;8.13;1.25;;;7.20;99.90;;;;;;4970010;28;20202;-72
2021/01/12 11:26:33;;;;;;;9.95;1.17;;;7.30;99.90;;;;;;4970812;28;20190;-72
2021/01/12 11:29:00;;;;;;;14.88;1.23;;;7.30;99.90;;;;;;4969533;28;20229;-72
2021/01/12 11:31:27;;;;;;;13.13;2.50;;;7.40;99.90;;;;;;4969514;28;20202;-72
2021/01/12 11:33:55;;;;;;;9.20;1.40;;;7.50;99.90;;;;;;4969697;28;20289;-73
2021/01/12 11:36:22;;;;;;;8.82;1.08;;;7.50;99.90;;;;;;4971038;28;20282;-72
2021/01/12 11:38:49;;;;;;;14.07;1.52;;;7.50;99.90;;;;;;4955358;28;20214;-71
2021/01/12 11:41:15;;;;;;;9.98;1.60;;;7.50;99.90;;;;;;4969412;28;20202;-72
2021/01/12 11:43:41;;;;;;;15.40;1.40;;;7.50;99.90;;;;;;4967443;28;20889;-72
2021/01/12 11:46:08;;;;;;;8.25;1.15;;;7.50;99.90;;;;;;4965535;28;20201;-73
2021/01/12 11:48:34;;;;;;;18.83;1.55;;;7.50;99.90;;;;;;4946742;28;20261;-73
2021/01/12 11:51:02;;;;;;;10.13;1.27;;;7.50;99.90;;;;;;4965015;28;20206;-72
2021/01/12 11:53:29;;;;;;;6.82;1.38;;;7.50;99.90;;;;;;4974756;28;20225;-73
2021/01/12 11:55:56;;;;;;;16.20;1.60;;;7.60;99.90;;;;;;4963766;28;20709;-72
2021/01/12 11:58:22;;;;;;;6.97;1.20;;;7.60;99.90;;;;;;4980314;28;20201;-72
2021/01/12 12:00:48;;;;;;;7.43;1.20;;;7.60;99.90;;;;;;4975025;28;20206;-72
2021/01/12 12:03:15;;;;;;;5.82;1.20;;;7.60;99.90;;;;;;4976181;28;20205;-72
2021/01/12 12:05:41;;;;;;;15.65;1.27;;;7.60;99.90;;;;;;4975998;28;20222;-72
2021/01/12 12:08:08;;;;;;;19.05;3.35;;;7.60;99.90;;;;;;4955972;28;20205;-72
2021/01/12 12:10:34;;;;;;;14.07;1.60;;;7.70;99.90;;;;;;4974305;28;20256;-72
2021/01/12 12:13:02;;;;;;;14.98;1.60;;;7.70;99.90;;;;;;4974195;28;20210;-72
2021/01/12 12:15:32;;;;;;;9.32;1.60;;;7.70;99.90;;;;;;4970728;28;20232;-72
2021/01/12 12:17:58;;;;;;;15.32;1.90;;;7.70;99.90;;;;;;4973138;28;20221;-71
2021/01/12 12:20:26;;;;;;;7.30;1.52;;;7.80;99.90;;;;;;4974505;28;20252;-72
2021/01/12 12:22:52;;;;;;;8.73;1.40;;;7.80;99.90;;;;;;4971552;28;20261;-72
2021/01/12 12:25:19;;;;;;;12.15;2.00;;;7.80;99.90;;;;;;4952700;28;20205;-72
2021/01/12 12:27:46;;;;;;;12.25;1.75;;;7.90;99.90;;;;;;4967873;28;20664;-72
2021/01/12 12:30:13;;;;;;;19.00;1.50;;;8.00;99.90;;;;;;4950668;28;20731;-72
2021/01/12 12:32:39;;;;;;;8.77;1.40;;;8.00;99.90;;;;;;4964919;28;20202;-72
2021/01/12 12:35:07;;;;;;;6.32;1.33;;;8.00;99.90;;;;;;4978405;28;20205;-72
2021/01/12 12:37:33;;;;;;;8.25;1.50;;;8.00;99.90;;;;;;4980279;28;20213;-73
2021/01/12 12:40:00;;;;;;;10.55;1.50;;;8.00;99.90;;;;;;4977462;28;20289;-72
2021/01/12 12:42:27;;;;;;;11.13;1.40;;;8.00;99.90;;;;;;4976388;28;20206;-72
2021/01/12 12:44:53;;;;;;;13.65;1.60;;;8.00;99.90;;;;;;4957958;28;20206;-71
2021/01/12 12:47:22;;;;;;;15.35;1.60;;;7.90;99.90;;;;;;4956791;28;20558;-72
2021/01/12 12:49:49;;;;;;;15.32;1.85;;;8.00;99.90;;;;;;4969927;28;20206;-71
2021/01/12 12:52:16;;;;;;;13.20;1.58;;;8.00;99.90;;;;;;4969976;28;20317;-74
2021/01/12 12:54:43;;;;;;;10.52;1.30;;;8.00;99.90;;;;;;4969160;28;20296;-72
2021/01/12 12:57:12;;;;;;;11.60;1.38;;;8.10;99.90;;;;;;4969876;28;20229;-72
2021/01/12 12:59:40;;;;;;;12.70;1.55;;;8.10;99.90;;;;;;4967248;28;20655;-73